createdAt,value
2022-07-25T00:02:01.135Z,18.50
2022-07-25T00:04:28.982Z,18.50
2022-07-25T00:06:58.259Z,18.50
2022-07-25T00:09:25.216Z,18.40
2022-07-25T00:11:52.137Z,18.40
2022-07-25T00:14:21.188Z,18.40
2022-07-25T00:16:48.107Z,18.40
2022-07-25T00:19:14.964Z,18.40
2022-07-25T00:21:41.846Z,18.40
2022-07-25T00:24:09.181Z,18.30
2022-07-25T00:26:39.950Z,18.40
2022-07-25T00:29:07.613Z,18.30
2022-07-25T00:31:34.570Z,18.30
2022-07-25T00:34:04.502Z,18.40
2022-07-25T00:36:33.725Z,18.50
2022-07-25T00:39:00.648Z,18.50
2022-07-25T00:41:27.790Z,18.60
2022-07-25T00:43:54.655Z,18.50
2022-07-25T00:46:21.880Z,18.50
2022-07-25T00:48:51.110Z,18.50
2022-07-25T00:51:18.173Z,18.50
2022-07-25T00:53:47.722Z,18.50
2022-07-25T00:56:16.811Z,18.40
2022-07-25T00:58:45.503Z,18.40
2022-07-25T01:01:12.453Z,18.40
2022-07-25T01:03:42.140Z,18.50
2022-07-25T01:06:09.031Z,18.50
2022-07-25T01:08:38.895Z,18.50
2022-07-25T01:11:08.955Z,18.40
2022-07-25T01:13:35.882Z,18.40
2022-07-25T01:16:02.885Z,18.40
2022-07-25T01:18:29.871Z,18.40
2022-07-25T01:20:56.787Z,18.40
2022-07-25T01:23:23.592Z,18.30
2022-07-25T01:25:52.716Z,18.30
2022-07-25T01:28:19.888Z,18.20
2022-07-25T01:30:47.023Z,18.30
2022-07-25T01:33:18.402Z,18.20
2022-07-25T01:35:48.957Z,18.30
2022-07-25T01:38:16.595Z,18.20
2022-07-25T01:40:44.238Z,18.20
2022-07-25T01:43:16.045Z,18.20
2022-07-25T01:45:42.907Z,18.10
2022-07-25T01:48:09.936Z,18.10
2022-07-25T01:50:36.818Z,18.00
2022-07-25T01:53:04.514Z,18.00
2022-07-25T01:55:31.361Z,18.10
2022-07-25T01:57:59.662Z,18.10
2022-07-25T02:00:26.596Z,18.00
2022-07-25T02:03:11.894Z,18.00
2022-07-25T02:05:38.732Z,17.90
2022-07-25T02:08:05.749Z,17.90
2022-07-25T02:10:33.145Z,17.90
2022-07-25T02:13:01.517Z,17.80
2022-07-25T02:15:28.466Z,17.80
2022-07-25T02:17:55.417Z,17.70
2022-07-25T02:20:22.254Z,17.70
2022-07-25T02:22:49.152Z,17.70
2022-07-25T02:25:16.158Z,17.70
2022-07-25T02:27:42.974Z,17.70
2022-07-25T02:30:10.170Z,17.60
2022-07-25T02:32:37.084Z,17.60
2022-07-25T02:35:05.449Z,17.70
2022-07-25T02:37:40.488Z,17.70
2022-07-25T02:40:08.059Z,17.70
2022-07-25T02:42:34.856Z,17.70
2022-07-25T02:45:02.184Z,17.70
2022-07-25T02:47:29.598Z,17.60
2022-07-25T02:49:58.750Z,17.70
2022-07-25T02:52:28.104Z,17.60
2022-07-25T02:54:58.002Z,17.60
2022-07-25T02:57:24.770Z,17.60
2022-07-25T02:59:56.186Z,17.70
2022-07-25T03:02:23.299Z,17.70
2022-07-25T03:04:50.111Z,17.60
2022-07-25T03:07:19.888Z,17.70
2022-07-25T03:09:48.842Z,17.60
2022-07-25T03:12:18.114Z,17.60
2022-07-25T03:14:45.032Z,17.60
2022-07-25T03:17:12.055Z,17.60
2022-07-25T03:19:38.954Z,17.60
2022-07-25T03:22:05.806Z,17.60
2022-07-25T03:24:34.733Z,17.60
2022-07-25T03:27:01.713Z,17.60
2022-07-25T03:29:28.608Z,17.60
2022-07-25T03:31:55.888Z,17.60
2022-07-25T03:34:22.837Z,17.60
2022-07-25T03:36:49.808Z,17.60
2022-07-25T03:39:16.791Z,17.60
2022-07-25T03:41:43.743Z,17.50
2022-07-25T03:44:10.717Z,17.60
2022-07-25T03:46:37.650Z,17.60
2022-07-25T03:49:07.127Z,17.50
2022-07-25T03:51:33.999Z,17.60
2022-07-25T03:54:04.529Z,17.50
2022-07-25T03:56:47.609Z,17.50
2022-07-25T03:59:19.020Z,17.50
2022-07-25T04:01:49.141Z,17.50
2022-07-25T04:04:19.565Z,17.60
2022-07-25T04:06:51.764Z,17.50
2022-07-25T04:09:18.704Z,17.50
2022-07-25T04:11:45.488Z,17.50
2022-07-25T04:14:12.383Z,17.50
2022-07-25T04:16:39.838Z,17.60
2022-07-25T04:19:07.501Z,17.60
2022-07-25T04:21:35.523Z,17.60
2022-07-25T04:24:02.585Z,17.60
2022-07-25T04:26:34.267Z,17.60
2022-07-25T04:29:03.671Z,17.60
2022-07-25T04:31:30.814Z,17.60
2022-07-25T04:34:00.147Z,17.60
2022-07-25T04:36:27.074Z,17.60
2022-07-25T04:38:53.844Z,17.70
2022-07-25T04:41:20.647Z,17.70
2022-07-25T04:43:48.856Z,17.70
2022-07-25T04:46:20.458Z,17.70
2022-07-25T04:48:48.147Z,17.80
2022-07-25T04:51:15.668Z,17.80
2022-07-25T04:53:42.592Z,17.80
2022-07-25T04:56:09.321Z,17.90
2022-07-25T04:58:36.477Z,18.00
2022-07-25T05:01:03.619Z,18.00
2022-07-25T05:03:30.470Z,18.10
2022-07-25T05:05:57.424Z,18.20
2022-07-25T05:08:24.329Z,18.30
2022-07-25T05:10:51.192Z,18.30
2022-07-25T05:13:20.839Z,18.40
2022-07-25T05:15:47.754Z,18.50
2022-07-25T05:18:16.870Z,18.50
2022-07-25T05:20:43.706Z,18.50
2022-07-25T05:23:13.061Z,18.60
2022-07-25T05:25:40.024Z,18.70
2022-07-25T05:28:06.948Z,18.80
2022-07-25T05:30:39.348Z,18.80
2022-07-25T05:33:06.695Z,18.90
2022-07-25T05:35:35.850Z,19.00
2022-07-25T05:38:02.833Z,19.10
2022-07-25T05:40:29.587Z,19.20
2022-07-25T05:43:00.918Z,19.20
2022-07-25T05:45:32.453Z,19.20
2022-07-25T05:48:01.834Z,19.30
2022-07-25T05:50:28.711Z,19.30
2022-07-25T05:52:58.044Z,19.40
2022-07-25T05:55:24.847Z,19.40
2022-07-25T05:57:53.965Z,19.50
2022-07-25T06:00:20.862Z,19.60
2022-07-25T06:02:50.152Z,19.60
2022-07-25T06:05:17.077Z,19.70
2022-07-25T06:07:43.944Z,19.80
2022-07-25T06:10:10.949Z,19.80
2022-07-25T06:12:37.759Z,19.90
2022-07-25T06:15:05.677Z,19.90
2022-07-25T06:17:32.897Z,20.00
2022-07-25T06:19:59.883Z,20.00
2022-07-25T06:22:26.849Z,20.00
2022-07-25T06:24:53.841Z,20.10
2022-07-25T06:27:23.026Z,20.20
2022-07-25T06:29:51.794Z,20.30
2022-07-25T06:32:18.576Z,20.30
2022-07-25T06:34:45.430Z,20.40
2022-07-25T06:37:12.219Z,20.60
2022-07-25T06:39:42.544Z,20.60
2022-07-25T06:42:12.222Z,20.70
2022-07-25T06:44:41.212Z,20.80
2022-07-25T06:47:12.859Z,20.90
2022-07-25T06:49:41.339Z,21.00
2022-07-25T06:52:08.793Z,21.00
2022-07-25T06:54:35.663Z,21.10
2022-07-25T06:57:02.510Z,21.20
2022-07-25T06:59:29.370Z,21.20
2022-07-25T07:01:58.389Z,21.30
2022-07-25T07:04:25.237Z,21.40
2022-07-25T07:06:52.353Z,21.60
2022-07-25T07:09:19.163Z,21.60
2022-07-25T07:11:45.974Z,21.70
2022-07-25T07:14:12.799Z,21.80
2022-07-25T07:16:41.371Z,21.80
2022-07-25T07:19:14.620Z,21.80
2022-07-25T07:21:42.070Z,21.90
2022-07-25T07:24:23.189Z,22.00
2022-07-25T07:26:53.811Z,22.20
2022-07-25T07:29:22.993Z,22.10
2022-07-25T07:31:57.050Z,22.30
2022-07-25T07:34:25.986Z,22.30
2022-07-25T07:36:52.938Z,22.40
2022-07-25T07:39:19.931Z,22.50
2022-07-25T07:41:48.809Z,22.40
2022-07-25T07:44:15.681Z,22.50
2022-07-25T07:46:42.777Z,22.50
2022-07-25T07:49:10.310Z,22.80
2022-07-25T07:51:40.003Z,22.90
2022-07-25T07:54:25.361Z,23.10
2022-07-25T07:56:52.194Z,23.20
2022-07-25T07:59:19.159Z,23.20
2022-07-25T08:01:46.035Z,23.40
2022-07-25T08:04:15.614Z,23.50
2022-07-25T08:06:43.177Z,23.60
2022-07-25T08:09:10.388Z,23.60
2022-07-25T08:11:42.061Z,23.70
2022-07-25T08:14:11.512Z,23.70
2022-07-25T08:16:38.466Z,23.80
2022-07-25T08:19:05.292Z,24.00
2022-07-25T08:21:32.209Z,24.20
2022-07-25T08:23:59.165Z,24.30
2022-07-25T08:26:27.866Z,24.40
2022-07-25T08:29:17.239Z,24.50
2022-07-25T08:31:41.591Z,24.50
2022-07-25T08:34:10.580Z,24.70
2022-07-25T08:36:37.944Z,24.80
2022-07-25T08:39:04.823Z,24.80
2022-07-25T08:41:33.878Z,24.90
2022-07-25T08:44:02.863Z,25.00
2022-07-25T08:46:30.204Z,25.10
2022-07-25T08:48:59.879Z,25.10
2022-07-25T08:51:30.516Z,25.40
2022-07-25T08:53:57.664Z,25.40
2022-07-25T08:56:25.412Z,25.40
2022-07-25T08:58:53.955Z,25.50
2022-07-25T09:01:23.427Z,25.70
2022-07-25T09:03:50.572Z,25.70
2022-07-25T09:06:20.801Z,25.80
2022-07-25T09:08:59.633Z,25.90
2022-07-25T09:11:37.126Z,25.90
2022-07-25T09:14:10.349Z,26.10
2022-07-25T09:16:41.908Z,26.30
2022-07-25T09:19:11.058Z,26.50
2022-07-25T09:21:39.885Z,26.70
2022-07-25T09:24:11.521Z,26.70
2022-07-25T09:26:58.521Z,26.70
2022-07-25T09:29:30.540Z,26.80
2022-07-25T09:31:59.586Z,27.00
2022-07-25T09:34:49.860Z,27.10
2022-07-25T09:37:19.555Z,27.20
2022-07-25T09:39:49.833Z,27.30
2022-07-25T09:42:21.129Z,27.40
2022-07-25T09:45:15.290Z,27.50
2022-07-25T09:47:57.386Z,27.50
2022-07-25T09:50:28.579Z,27.70
2022-07-25T09:53:01.996Z,27.90
2022-07-25T09:55:30.186Z,27.90
2022-07-25T09:57:57.011Z,28.10
2022-07-25T10:00:26.777Z,28.10
2022-07-25T10:03:15.118Z,28.20
2022-07-25T10:06:20.391Z,28.40
2022-07-25T10:08:50.820Z,28.50
2022-07-25T10:11:25.744Z,28.60
2022-07-25T10:13:54.014Z,28.70
2022-07-25T10:16:24.501Z,28.80
2022-07-25T10:18:53.970Z,29.00
2022-07-25T10:21:26.865Z,29.00
2022-07-25T10:24:06.837Z,29.20
2022-07-25T10:26:40.044Z,29.40
2022-07-25T10:29:11.647Z,29.50
2022-07-25T10:31:49.355Z,29.50
2022-07-25T10:34:28.975Z,29.70
2022-07-25T10:36:57.256Z,29.60
2022-07-25T10:39:24.238Z,29.80
2022-07-25T10:41:53.167Z,30.00
2022-07-25T10:44:20.033Z,30.20
2022-07-25T10:46:50.793Z,30.30
2022-07-25T10:49:32.233Z,30.30
2022-07-25T10:52:01.314Z,30.40
2022-07-25T10:54:37.480Z,30.50
2022-07-25T10:57:06.425Z,30.70
2022-07-25T10:59:36.735Z,30.90
2022-07-25T11:02:06.802Z,31.10
2022-07-25T11:04:34.544Z,31.30
2022-07-25T11:07:12.486Z,31.70
2022-07-25T11:09:40.712Z,31.90
2022-07-25T11:12:14.181Z,32.10
2022-07-25T11:14:42.839Z,32.10
2022-07-25T11:17:22.450Z,32.30
2022-07-25T11:20:09.802Z,32.50
2022-07-25T11:22:36.788Z,32.40
2022-07-25T11:25:11.820Z,32.20
2022-07-25T11:27:38.800Z,32.20
2022-07-25T11:30:19.004Z,32.50
2022-07-25T11:32:54.544Z,32.90
2022-07-25T11:35:24.448Z,33.50
2022-07-25T11:37:52.298Z,33.90
2022-07-25T11:40:21.210Z,34.20
2022-07-25T11:42:50.807Z,34.50
2022-07-25T11:45:22.704Z,34.70
2022-07-25T11:48:05.859Z,34.40
2022-07-25T11:50:34.602Z,34.50
2022-07-25T11:53:05.743Z,34.50
2022-07-25T11:55:38.113Z,34.00
2022-07-25T11:58:05.884Z,33.80
2022-07-25T12:00:51.568Z,33.80
2022-07-25T12:03:23.036Z,33.70
2022-07-25T12:05:50.441Z,33.50
2022-07-25T12:08:25.076Z,33.60
2022-07-25T12:10:55.689Z,34.10
2022-07-25T12:13:30.561Z,34.30
2022-07-25T12:15:59.040Z,34.50
2022-07-25T12:18:28.507Z,34.60
2022-07-25T12:20:55.537Z,34.70
2022-07-25T12:23:22.489Z,35.10
2022-07-25T12:25:50.306Z,35.80
2022-07-25T12:28:17.349Z,36.20
2022-07-25T12:30:51.611Z,36.30
2022-07-25T12:33:24.333Z,37.00
2022-07-25T12:35:51.128Z,38.00
2022-07-25T12:38:17.956Z,39.00
2022-07-25T12:40:44.917Z,43.40
2022-07-25T12:43:11.816Z,42.80
2022-07-25T12:45:39.694Z,45.40
2022-07-25T12:48:07.026Z,48.20
2022-07-25T12:50:33.847Z,45.10
2022-07-25T12:53:01.045Z,47.40
2022-07-25T12:55:28.132Z,45.70
2022-07-25T12:57:55.132Z,49.90
2022-07-25T13:00:23.237Z,51.90
2022-07-25T13:02:52.125Z,51.80
2022-07-25T13:05:22.513Z,52.10
2022-07-25T13:07:49.635Z,50.00
2022-07-25T13:10:18.091Z,49.10
2022-07-25T13:12:45.330Z,48.00
2022-07-25T13:15:12.399Z,52.10
2022-07-25T13:17:42.061Z,52.40
2022-07-25T13:20:09.890Z,54.20
2022-07-25T13:22:39.090Z,51.30
2022-07-25T13:25:06.538Z,50.00
2022-07-25T13:27:33.640Z,47.60
2022-07-25T13:30:05.533Z,48.60
2022-07-25T13:32:35.236Z,47.30
2022-07-25T13:35:02.159Z,45.90
2022-07-25T13:37:28.923Z,45.80
2022-07-25T13:39:58.113Z,43.90
2022-07-25T13:42:25.144Z,44.20
2022-07-25T13:44:51.967Z,43.20
2022-07-25T13:47:21.328Z,42.20
2022-07-25T13:49:50.331Z,42.20
2022-07-25T13:52:22.049Z,42.70
2022-07-25T13:54:48.866Z,45.50
2022-07-25T13:57:15.728Z,50.60
2022-07-25T13:59:42.507Z,52.40
2022-07-25T14:02:11.860Z,54.80
2022-07-25T14:04:41.448Z,57.90
2022-07-25T14:07:08.614Z,57.40
2022-07-25T14:09:35.496Z,54.80
2022-07-25T14:12:02.390Z,54.70
2022-07-25T14:14:29.178Z,56.30
2022-07-25T14:16:56.467Z,56.60
2022-07-25T14:19:25.858Z,53.30
2022-07-25T14:21:52.640Z,55.70
2022-07-25T14:24:21.688Z,57.80
2022-07-25T14:26:49.620Z,58.50
2022-07-25T14:29:16.566Z,59.80
2022-07-25T14:31:43.488Z,58.40
2022-07-25T14:34:15.338Z,57.50
2022-07-25T14:36:42.455Z,57.30
2022-07-25T14:39:11.825Z,55.30
2022-07-25T14:41:38.837Z,55.40
2022-07-25T14:44:09.388Z,54.90
2022-07-25T14:46:36.393Z,51.50
2022-07-25T14:49:03.496Z,48.30
2022-07-25T14:51:30.575Z,47.10
2022-07-25T14:53:57.635Z,45.80
2022-07-25T14:56:24.637Z,44.40
2022-07-25T14:58:51.717Z,41.70
2022-07-25T15:01:24.483Z,39.30
2022-07-25T15:03:56.105Z,38.60
2022-07-25T15:06:27.329Z,38.50
2022-07-25T15:08:56.206Z,38.30
2022-07-25T15:11:23.898Z,37.80
2022-07-25T15:13:53.193Z,37.10
2022-07-25T15:16:22.212Z,36.70
2022-07-25T15:19:14.432Z,36.20
2022-07-25T15:21:37.261Z,35.90
2022-07-25T15:24:04.820Z,35.70
2022-07-25T15:26:34.680Z,35.80
2022-07-25T15:29:01.677Z,35.90
2022-07-25T15:31:30.643Z,36.60
2022-07-25T15:33:58.231Z,37.10
2022-07-25T15:36:29.295Z,37.20
2022-07-25T15:38:58.794Z,37.10
2022-07-25T15:41:26.611Z,36.90
2022-07-25T15:43:53.646Z,36.70
2022-07-25T15:46:23.127Z,36.50
2022-07-25T15:48:50.144Z,36.40
2022-07-25T15:51:19.539Z,37.30
2022-07-25T15:53:46.343Z,37.80
2022-07-25T15:56:16.498Z,38.80
2022-07-25T15:58:44.307Z,41.10
2022-07-25T16:01:11.452Z,41.50
2022-07-25T16:03:38.516Z,41.20
2022-07-25T16:06:05.434Z,40.30
2022-07-25T16:08:32.244Z,39.10
2022-07-25T16:10:59.877Z,38.40
2022-07-25T16:13:26.843Z,37.70
2022-07-25T16:15:54.050Z,37.90
2022-07-25T16:18:21.017Z,37.20
2022-07-25T16:20:47.826Z,36.80
2022-07-25T16:23:16.709Z,36.40
2022-07-25T16:25:43.702Z,36.00
2022-07-25T16:28:10.668Z,35.70
2022-07-25T16:30:39.701Z,35.40
2022-07-25T16:33:06.492Z,35.10
2022-07-25T16:35:33.334Z,34.80
2022-07-25T16:38:00.703Z,34.50
2022-07-25T16:40:30.983Z,34.20
2022-07-25T16:42:59.239Z,33.90
2022-07-25T16:45:26.871Z,33.60
2022-07-25T16:47:53.754Z,33.40
2022-07-25T16:50:20.928Z,33.20
2022-07-25T16:52:48.305Z,32.90
2022-07-25T16:55:15.160Z,32.70
2022-07-25T16:57:44.575Z,32.40
2022-07-25T17:00:12.228Z,32.40
2022-07-25T17:02:39.776Z,31.80
2022-07-25T17:05:09.660Z,31.10
2022-07-25T17:07:40.563Z,30.60
2022-07-25T17:10:10.220Z,30.10
2022-07-25T17:12:37.214Z,29.70
2022-07-25T17:15:05.009Z,29.30
2022-07-25T17:17:31.800Z,29.10
2022-07-25T17:20:00.219Z,28.80
2022-07-25T17:22:30.032Z,28.60
2022-07-25T17:25:01.649Z,28.50
2022-07-25T17:27:28.500Z,28.40
2022-07-25T17:29:58.383Z,28.30
2022-07-25T17:32:29.365Z,28.30
2022-07-25T17:34:57.018Z,27.10
2022-07-25T17:37:24.476Z,26.50
2022-07-25T17:39:51.348Z,26.10
2022-07-25T17:42:22.323Z,25.80
2022-07-25T17:44:52.804Z,25.50
2022-07-25T17:47:22.084Z,25.20
2022-07-25T17:49:52.678Z,25.00
2022-07-25T17:52:19.514Z,24.80
2022-07-25T17:54:46.300Z,24.70
2022-07-25T17:57:13.201Z,24.50
2022-07-25T17:59:40.042Z,24.50
2022-07-25T18:02:11.868Z,24.50
2022-07-25T18:04:38.867Z,24.40
2022-07-25T18:07:05.899Z,24.40
2022-07-25T18:09:35.153Z,24.40
2022-07-25T18:12:02.013Z,24.40
2022-07-25T18:14:31.518Z,24.40
2022-07-25T18:16:58.443Z,24.40
2022-07-25T18:19:26.418Z,24.40
2022-07-25T18:21:53.476Z,24.40
2022-07-25T18:24:20.259Z,24.50
2022-07-25T18:26:49.309Z,24.50
2022-07-25T18:29:16.936Z,24.40
2022-07-25T18:31:46.171Z,24.30
2022-07-25T18:34:13.139Z,24.30
2022-07-25T18:36:40.829Z,24.20
2022-07-25T18:39:07.798Z,24.10
2022-07-25T18:41:34.651Z,24.00
2022-07-25T18:44:04.007Z,24.00
2022-07-25T18:46:32.827Z,24.00
2022-07-25T18:49:00.932Z,23.80
2022-07-25T18:51:27.931Z,23.80
2022-07-25T18:53:54.730Z,23.70
2022-07-25T18:56:21.536Z,23.60
2022-07-25T18:58:48.617Z,23.60
2022-07-25T19:01:15.634Z,23.60
2022-07-25T19:03:42.559Z,23.60
2022-07-25T19:06:10.430Z,23.60
2022-07-25T19:08:37.783Z,23.60
2022-07-25T19:11:05.021Z,23.60
2022-07-25T19:13:49.054Z,23.60
2022-07-25T19:16:20.571Z,23.60
2022-07-25T19:18:50.518Z,23.50
2022-07-25T19:21:17.406Z,23.50
2022-07-25T19:23:50.146Z,23.50
2022-07-25T19:26:18.707Z,23.50
2022-07-25T19:28:45.883Z,23.50
2022-07-25T19:31:14.611Z,23.50
2022-07-25T19:33:42.200Z,23.50
2022-07-25T19:36:09.461Z,23.50
2022-07-25T19:38:36.222Z,23.50
2022-07-25T19:41:03.220Z,23.50
2022-07-25T19:43:30.212Z,23.50
2022-07-25T19:45:57.066Z,23.40
2022-07-25T19:48:24.239Z,23.40
2022-07-25T19:50:54.841Z,23.30
2022-07-25T19:53:28.319Z,23.30
2022-07-25T19:55:55.628Z,23.30
2022-07-25T19:58:22.579Z,23.20
2022-07-25T20:00:51.959Z,23.40
2022-07-25T20:03:23.362Z,23.40
2022-07-25T20:05:53.438Z,23.50
2022-07-25T20:08:22.605Z,23.50
2022-07-25T20:10:49.639Z,23.50
2022-07-25T20:13:16.701Z,23.60
2022-07-25T20:15:46.305Z,23.60
2022-07-25T20:18:18.963Z,23.80
2022-07-25T20:20:51.013Z,23.80
2022-07-25T20:23:18.123Z,23.80
2022-07-25T20:25:45.080Z,23.90
2022-07-25T20:28:12.222Z,23.90
2022-07-25T20:30:39.430Z,24.00
2022-07-25T20:33:10.036Z,24.00
2022-07-25T20:35:37.767Z,24.00
2022-07-25T20:38:09.722Z,24.00
2022-07-25T20:40:47.995Z,24.00
2022-07-25T20:43:16.319Z,24.00
2022-07-25T20:45:43.510Z,23.90
2022-07-25T20:48:10.705Z,23.80
2022-07-25T20:50:40.428Z,23.70
2022-07-25T20:53:08.287Z,23.60
2022-07-25T20:55:35.338Z,23.50
2022-07-25T20:58:02.769Z,23.30
2022-07-25T21:00:30.665Z,23.20
2022-07-25T21:02:58.908Z,23.10
2022-07-25T21:05:26.295Z,23.00
2022-07-25T21:07:53.351Z,23.00
2022-07-25T21:10:20.893Z,22.80
2022-07-25T21:12:47.793Z,22.70
2022-07-25T21:15:17.613Z,22.70
2022-07-25T21:17:44.547Z,22.50
2022-07-25T21:20:15.124Z,22.40
2022-07-25T21:22:42.749Z,22.30
2022-07-25T21:25:10.694Z,22.30
2022-07-25T21:27:38.477Z,22.10
2022-07-25T21:30:09.937Z,22.10
2022-07-25T21:32:36.973Z,22.10
2022-07-25T21:35:05.496Z,22.10
2022-07-25T21:37:32.379Z,22.10
2022-07-25T21:39:59.733Z,22.10
2022-07-25T21:42:29.816Z,22.10
2022-07-25T21:44:56.746Z,22.10
2022-07-25T21:47:23.609Z,22.10
2022-07-25T21:50:09.022Z,22.00
2022-07-25T21:52:36.034Z,22.00
2022-07-25T21:55:04.795Z,22.00
2022-07-25T21:57:34.552Z,21.90
2022-07-25T22:00:01.387Z,21.80
2022-07-25T22:02:28.179Z,21.50
2022-07-25T22:04:55.032Z,21.20
2022-07-25T22:07:22.860Z,20.90
2022-07-25T22:09:50.659Z,20.70
2022-07-25T22:12:17.804Z,20.50
2022-07-25T22:14:44.670Z,20.40
2022-07-25T22:17:13.584Z,20.20
2022-07-25T22:19:41.062Z,20.20
2022-07-25T22:22:08.205Z,20.10
2022-07-25T22:24:35.285Z,20.00
2022-07-25T22:27:06.615Z,20.00
2022-07-25T22:29:36.171Z,19.90
2022-07-25T22:32:03.103Z,19.80
2022-07-25T22:34:30.139Z,19.80
2022-07-25T22:36:57.099Z,19.80
2022-07-25T22:39:23.990Z,19.90
2022-07-25T22:41:50.978Z,19.90
2022-07-25T22:44:20.078Z,20.00
2022-07-25T22:46:46.954Z,20.00
2022-07-25T22:49:16.352Z,20.00
2022-07-25T22:51:43.407Z,20.00
2022-07-25T22:54:12.660Z,20.00
2022-07-25T22:56:39.496Z,20.00
2022-07-25T22:59:06.458Z,20.00
2022-07-25T23:01:35.931Z,20.10
2022-07-25T23:04:02.908Z,20.10
2022-07-25T23:06:29.921Z,20.10
2022-07-25T23:08:59.853Z,20.10
2022-07-25T23:11:27.874Z,20.10
2022-07-25T23:13:54.690Z,20.10
2022-07-25T23:16:21.895Z,20.10
2022-07-25T23:18:48.775Z,20.20
2022-07-25T23:21:15.582Z,20.10
2022-07-25T23:23:42.356Z,20.10
2022-07-25T23:26:09.258Z,20.10
2022-07-25T23:28:36.186Z,20.00
2022-07-25T23:31:05.757Z,20.00
2022-07-25T23:33:32.614Z,20.00
2022-07-25T23:36:01.867Z,20.00
2022-07-25T23:38:28.663Z,19.90
2022-07-25T23:40:55.743Z,19.90
2022-07-25T23:43:57.672Z,19.80
2022-07-25T23:46:16.414Z,19.70
2022-07-25T23:48:45.165Z,19.70
2022-07-25T23:51:11.953Z,19.60
2022-07-25T23:53:41.161Z,19.70
2022-07-25T23:56:08.206Z,19.70
2022-07-25T23:58:37.197Z,19.70
